Time;durP1;ratioP1;P1;durP2;ratioP2;P2;SDS_P1;SDS_P2;PMS_P1;PMS_P2;Temp;Humidity;BMP_temperature;BMP_pressure;BME280_temperature;BME280_humidity;BME280_pressure;Samples;Min_cycle;Max_cycle;Signal;HPM_P1;HPM_P2
2023/03/03 00:01:17;;;;;;;0.10;0.10;;;;;;;;;;6224947;23;20115;-75
2023/03/03 00:04:03;;;;;;;0.10;0.10;;;;;;;;;;6226627;23;20008;-75
2023/03/03 00:06:48;;;;;;;0.10;0.10;;;;;;;;;;6224414;23;20590;-74
2023/03/03 00:09:34;;;;;;;0.10;0.10;;;;;;;;;;6226592;23;20016;-75
2023/03/03 00:12:24;;;;;;;0.10;0.10;;;;;;;;;;6225709;23;20023;-75
2023/03/03 00:15:14;;;;;;;0.10;0.10;;;;;;;;;;6225864;23;20324;-75
2023/03/03 00:18:00;;;;;;;0.10;0.10;;;;;;;;;;6226393;23;20012;-75
2023/03/03 00:21:09;;;;;;;0.10;0.10;;;;;;;;;;6225255;23;20111;-75
2023/03/03 00:24:21;;;;;;;0.10;0.10;;;;;;;;;;6227921;23;20020;-76
2023/03/03 00:27:28;;;;;;;0.10;0.10;;;;;;;;;;6228015;23;20027;-75
2023/03/03 00:30:24;;;;;;;0.10;0.10;;;;;;;;;;6205551;23;20012;-75
2023/03/03 00:33:31;;;;;;;0.15;0.15;;;;;;;;;;6227747;23;20067;-75
2023/03/03 00:36:27;;;;;;;0.10;0.10;;;;;;;;;;6204978;23;20027;-75
2023/03/03 00:39:16;;;;;;;0.10;0.10;;;;;;;;;;6208300;23;20020;-75
2023/03/03 00:42:09;;;;;;;0.10;0.10;;;;;;;;;;6226543;23;20023;-75
2023/03/03 00:44:58;;;;;;;0.10;0.10;;;;;;;;;;6228069;23;20296;-75
2023/03/03 00:47:43;;;;;;;0.10;0.10;;;;;;;;;;6227450;23;20008;-76
2023/03/03 00:50:30;;;;;;;0.10;0.10;;;;;;;;;;6226990;23;20034;-74
2023/03/03 00:53:17;;;;;;;0.10;0.10;;;;;;;;;;6228335;23;20015;-74
2023/03/03 00:56:03;;;;;;;0.10;0.10;;;;;;;;;;6227441;23;20023;-74
2023/03/03 00:58:49;;;;;;;0.10;0.10;;;;;;;;;;6228075;23;20078;-75
2023/03/03 01:01:38;;;;;;;0.10;0.10;;;;;;;;;;6185549;23;20120;-75
2023/03/03 01:04:25;;;;;;;0.10;0.10;;;;;;;;;;6204624;23;20241;-74
2023/03/03 01:07:11;;;;;;;0.10;0.10;;;;;;;;;;6228202;23;20016;-74
2023/03/03 01:09:57;;;;;;;0.10;0.10;;;;;;;;;;6205631;23;20036;-74
2023/03/03 01:12:43;;;;;;;0.20;0.20;;;;;;;;;;6205275;23;20120;-75
2023/03/03 01:15:29;;;;;;;0.10;0.10;;;;;;;;;;6205436;23;20016;-75
2023/03/03 01:18:15;;;;;;;0.10;0.10;;;;;;;;;;6228126;23;20487;-76
2023/03/03 01:21:01;;;;;;;0.10;0.10;;;;;;;;;;6184727;23;20024;-74
2023/03/03 01:23:46;;;;;;;0.10;0.10;;;;;;;;;;6226368;23;20489;-74
2023/03/03 01:26:36;;;;;;;0.10;0.10;;;;;;;;;;6205293;23;20038;-74
2023/03/03 01:29:25;;;;;;;0.15;0.15;;;;;;;;;;6228142;23;20436;-74
2023/03/03 01:32:11;;;;;;;0.13;0.13;;;;;;;;;;6227463;23;20098;-74
2023/03/03 01:34:57;;;;;;;0.10;0.10;;;;;;;;;;6227560;23;20119;-74
2023/03/03 01:37:43;;;;;;;0.10;0.10;;;;;;;;;;6227757;23;20012;-74
2023/03/03 01:40:29;;;;;;;0.10;0.10;;;;;;;;;;6226330;23;20019;-74
2023/03/03 01:43:15;;;;;;;0.10;0.10;;;;;;;;;;6226876;23;20024;-75
2023/03/03 01:46:01;;;;;;;0.10;0.10;;;;;;;;;;6205046;23;20016;-75
2023/03/03 01:48:47;;;;;;;0.10;0.10;;;;;;;;;;6227312;23;20560;-74
2023/03/03 01:52:03;;;;;;;0.10;0.10;;;;;;;;;;6205574;23;20012;-74
2023/03/03 01:54:51;;;;;;;0.10;0.10;;;;;;;;;;6194748;23;20019;-74
2023/03/03 01:57:43;;;;;;;0.10;0.10;;;;;;;;;;6204974;23;20325;-74
2023/03/03 02:00:31;;;;;;;0.10;0.10;;;;;;;;;;6205284;23;20019;-74
2023/03/03 02:03:19;;;;;;;0.10;0.10;;;;;;;;;;6227398;23;20445;-74
2023/03/03 02:06:06;;;;;;;0.20;0.20;;;;;;;;;;6204859;23;20012;-75
2023/03/03 02:09:00;;;;;;;0.10;0.10;;;;;;;;;;6227661;23;20019;-75
2023/03/03 02:11:49;;;;;;;0.10;0.10;;;;;;;;;;6204022;23;20019;-74
2023/03/03 02:14:35;;;;;;;0.10;0.10;;;;;;;;;;6228292;23;20062;-74
2023/03/03 02:17:21;;;;;;;0.10;0.10;;;;;;;;;;6204314;23;20016;-74
2023/03/03 02:20:30;;;;;;;0.10;0.10;;;;;;;;;;6228398;23;20089;-74
2023/03/03 02:23:25;;;;;;;0.10;0.10;;;;;;;;;;6228234;23;20054;-74
2023/03/03 02:26:14;;;;;;;0.10;0.10;;;;;;;;;;6205456;23;20305;-75
2023/03/03 02:29:00;;;;;;;0.10;0.10;;;;;;;;;;6204423;23;20016;-74
2023/03/03 02:31:47;;;;;;;0.10;0.10;;;;;;;;;;6203851;23;20024;-74
2023/03/03 02:34:46;;;;;;;0.10;0.10;;;;;;;;;;6206407;23;20409;-74
2023/03/03 02:37:32;;;;;;;0.10;0.10;;;;;;;;;;6227279;23;20012;-75
2023/03/03 02:40:20;;;;;;;0.10;0.10;;;;;;;;;;6226984;23;20487;-74
2023/03/03 02:43:07;;;;;;;0.10;0.10;;;;;;;;;;6205693;23;20241;-74
2023/03/03 02:45:53;;;;;;;0.10;0.10;;;;;;;;;;6185596;23;20019;-74
2023/03/03 02:48:38;;;;;;;0.20;0.20;;;;;;;;;;6226603;23;20022;-74
2023/03/03 02:51:24;;;;;;;0.10;0.10;;;;;;;;;;6204783;23;20329;-74
2023/03/03 02:54:11;;;;;;;0.10;0.10;;;;;;;;;;6205225;23;20501;-74
2023/03/03 02:56:58;;;;;;;0.10;0.10;;;;;;;;;;6226481;23;20347;-74
2023/03/03 02:59:43;;;;;;;0.10;0.10;;;;;;;;;;6227094;23;20099;-74
2023/03/03 03:02:32;;;;;;;0.10;0.10;;;;;;;;;;6203894;23;20016;-74
2023/03/03 03:05:18;;;;;;;0.10;0.10;;;;;;;;;;6226641;23;20019;-74
2023/03/03 03:08:04;;;;;;;0.10;0.10;;;;;;;;;;6227433;23;20326;-74
2023/03/03 03:10:50;;;;;;;0.10;0.10;;;;;;;;;;6204840;23;20297;-74
2023/03/03 03:13:36;;;;;;;0.10;0.10;;;;;;;;;;6205779;23;20083;-74
2023/03/03 03:16:22;;;;;;;0.10;0.10;;;;;;;;;;6203546;23;20531;-75
2023/03/03 03:19:08;;;;;;;0.10;0.10;;;;;;;;;;6225648;23;20015;-74
2023/03/03 03:21:55;;;;;;;0.10;0.10;;;;;;;;;;6203658;23;20495;-74
2023/03/03 03:24:43;;;;;;;0.10;0.10;;;;;;;;;;6204768;23;20042;-75
2023/03/03 03:27:29;;;;;;;0.10;0.10;;;;;;;;;;6227492;23;20329;-74
2023/03/03 03:30:15;;;;;;;0.10;0.10;;;;;;;;;;6203413;23;20278;-74
2023/03/03 03:33:01;;;;;;;0.20;0.20;;;;;;;;;;6227632;23;20018;-74
2023/03/03 03:35:47;;;;;;;0.20;0.20;;;;;;;;;;6203486;23;20369;-74
2023/03/03 03:38:35;;;;;;;0.10;0.10;;;;;;;;;;6225094;23;20016;-74
2023/03/03 03:41:22;;;;;;;0.10;0.10;;;;;;;;;;6184335;23;20058;-74
2023/03/03 03:44:08;;;;;;;0.15;0.15;;;;;;;;;;6226229;23;20038;-75
2023/03/03 03:46:54;;;;;;;0.10;0.10;;;;;;;;;;6203316;23;20012;-74
2023/03/03 03:49:39;;;;;;;0.10;0.10;;;;;;;;;;6194871;23;20025;-74
2023/03/03 03:52:26;;;;;;;0.10;0.10;;;;;;;;;;6196126;23;20321;-74
2023/03/03 03:55:12;;;;;;;0.10;0.10;;;;;;;;;;6194991;23;20064;-74
2023/03/03 03:57:59;;;;;;;0.10;0.10;;;;;;;;;;6175046;23;20013;-74
2023/03/03 04:00:45;;;;;;;0.10;0.10;;;;;;;;;;6194994;23;20024;-75
2023/03/03 04:03:31;;;;;;;0.10;0.10;;;;;;;;;;6196607;23;20133;-75
2023/03/03 04:06:17;;;;;;;0.10;0.10;;;;;;;;;;6196210;23;20328;-76
2023/03/03 04:09:03;;;;;;;0.10;0.10;;;;;;;;;;6194676;23;20040;-76
2023/03/03 04:11:49;;;;;;;0.10;0.10;;;;;;;;;;6196012;23;20063;-75
2023/03/03 04:14:36;;;;;;;0.10;0.10;;;;;;;;;;6195955;23;20005;-75
2023/03/03 04:17:23;;;;;;;0.10;0.10;;;;;;;;;;6195040;23;20024;-76
2023/03/03 04:20:12;;;;;;;0.10;0.10;;;;;;;;;;6195337;23;20020;-76
2023/03/03 04:23:02;;;;;;;0.10;0.10;;;;;;;;;;6175830;23;20123;-75
2023/03/03 04:25:50;;;;;;;0.10;0.10;;;;;;;;;;6195510;23;20342;-75
2023/03/03 04:28:36;;;;;;;0.10;0.10;;;;;;;;;;6195360;23;20017;-76
2023/03/03 04:31:22;;;;;;;0.10;0.10;;;;;;;;;;6195321;23;20732;-75
2023/03/03 04:34:08;;;;;;;0.10;0.10;;;;;;;;;;6173016;23;20735;-75
2023/03/03 04:36:54;;;;;;;0.10;0.10;;;;;;;;;;6195847;23;20017;-75
2023/03/03 04:39:40;;;;;;;0.10;0.10;;;;;;;;;;6196452;23;20048;-75
2023/03/03 04:42:26;;;;;;;0.20;0.20;;;;;;;;;;6174846;23;20029;-75
2023/03/03 04:45:13;;;;;;;0.10;0.10;;;;;;;;;;6195150;23;20008;-76
2023/03/03 04:47:59;;;;;;;0.10;0.10;;;;;;;;;;6194230;23;20435;-75
2023/03/03 04:50:45;;;;;;;0.20;0.20;;;;;;;;;;6204702;23;20016;-75
2023/03/03 04:53:31;;;;;;;0.20;0.20;;;;;;;;;;6183735;23;20016;-76
2023/03/03 04:56:16;;;;;;;0.10;0.10;;;;;;;;;;6204117;23;20035;-76
2023/03/03 04:59:02;;;;;;;0.10;0.10;;;;;;;;;;6226642;23;20008;-77
2023/03/03 05:01:49;;;;;;;0.10;0.10;;;;;;;;;;6203191;23;20055;-76
2023/03/03 05:04:36;;;;;;;0.10;0.10;;;;;;;;;;6205885;23;20012;-76
2023/03/03 05:07:23;;;;;;;0.10;0.10;;;;;;;;;;6227032;23;20183;-74
2023/03/03 05:10:09;;;;;;;0.20;0.20;;;;;;;;;;6205299;23;20449;-73
2023/03/03 05:12:55;;;;;;;0.10;0.10;;;;;;;;;;6227130;23;20073;-74
2023/03/03 05:15:41;;;;;;;0.10;0.10;;;;;;;;;;6229094;23;20016;-74
2023/03/03 05:18:26;;;;;;;0.10;0.10;;;;;;;;;;6230140;23;20050;-75
2023/03/03 05:21:12;;;;;;;0.10;0.10;;;;;;;;;;6206425;23;20027;-74
2023/03/03 05:23:58;;;;;;;0.10;0.10;;;;;;;;;;6228914;23;20012;-73
2023/03/03 05:26:44;;;;;;;0.10;0.10;;;;;;;;;;6230072;23;20012;-74
2023/03/03 05:29:30;;;;;;;0.10;0.10;;;;;;;;;;6207531;23;20429;-73
2023/03/03 05:32:16;;;;;;;0.10;0.10;;;;;;;;;;6228762;23;20031;-74
2023/03/03 05:35:02;;;;;;;0.10;0.10;;;;;;;;;;6229590;23;20067;-74
2023/03/03 05:37:48;;;;;;;0.10;0.10;;;;;;;;;;6229721;23;20401;-74
2023/03/03 05:40:34;;;;;;;0.10;0.10;;;;;;;;;;6228911;23;20345;-74
2023/03/03 05:43:19;;;;;;;0.10;0.10;;;;;;;;;;6228703;23;20070;-74
2023/03/03 05:46:05;;;;;;;0.10;0.10;;;;;;;;;;6227984;23;20515;-75
2023/03/03 05:48:51;;;;;;;0.10;0.10;;;;;;;;;;6228482;23;20103;-74
2023/03/03 05:51:36;;;;;;;0.20;0.20;;;;;;;;;;6229325;23;20135;-74
2023/03/03 05:54:22;;;;;;;0.10;0.10;;;;;;;;;;6229418;23;20115;-74
2023/03/03 05:57:08;;;;;;;0.10;0.10;;;;;;;;;;6227971;23;20008;-75
2023/03/03 05:59:54;;;;;;;0.15;0.15;;;;;;;;;;6228918;23;20024;-74
2023/03/03 06:02:40;;;;;;;0.10;0.10;;;;;;;;;;6205714;23;20020;-74
2023/03/03 06:05:26;;;;;;;0.10;0.10;;;;;;;;;;6230006;23;20027;-75
2023/03/03 06:08:11;;;;;;;0.20;0.20;;;;;;;;;;6207027;23;20256;-74
2023/03/03 06:10:57;;;;;;;0.15;0.15;;;;;;;;;;6229375;23;20039;-75
2023/03/03 06:13:43;;;;;;;0.20;0.20;;;;;;;;;;6206856;23;20093;-75
2023/03/03 06:16:32;;;;;;;0.10;0.10;;;;;;;;;;6229453;23;20034;-74
2023/03/03 06:19:17;;;;;;;0.10;0.10;;;;;;;;;;6229439;23;20019;-74
2023/03/03 06:22:04;;;;;;;0.10;0.10;;;;;;;;;;6229429;23;20343;-74
2023/03/03 06:24:51;;;;;;;0.10;0.10;;;;;;;;;;6207677;23;20016;-74
2023/03/03 06:27:37;;;;;;;0.20;0.20;;;;;;;;;;6229779;23;20100;-75
2023/03/03 06:30:22;;;;;;;0.10;0.10;;;;;;;;;;6230086;23;20052;-75
2023/03/03 06:33:08;;;;;;;0.10;0.10;;;;;;;;;;6231145;23;20077;-75
2023/03/03 06:35:54;;;;;;;0.10;0.10;;;;;;;;;;6185779;23;20620;-75
2023/03/03 06:38:39;;;;;;;0.10;0.10;;;;;;;;;;6229392;23;20012;-75
2023/03/03 06:41:25;;;;;;;0.10;0.10;;;;;;;;;;6228955;23;20709;-74
2023/03/03 06:44:11;;;;;;;0.20;0.20;;;;;;;;;;6227662;23;20058;-75
2023/03/03 06:46:57;;;;;;;0.17;0.17;;;;;;;;;;6229510;23;20016;-74
2023/03/03 06:49:43;;;;;;;0.10;0.10;;;;;;;;;;6230110;23;20059;-74
2023/03/03 06:52:29;;;;;;;0.10;0.10;;;;;;;;;;6207971;23;20023;-74
2023/03/03 06:55:20;;;;;;;0.13;0.13;;;;;;;;;;6230732;23;20091;-74
2023/03/03 06:58:26;;;;;;;0.20;0.20;;;;;;;;;;6228018;23;20011;-74
2023/03/03 07:01:14;;;;;;;0.20;0.20;;;;;;;;;;6225636;23;20015;-74
2023/03/03 07:04:00;;;;;;;0.20;0.20;;;;;;;;;;6205233;23;20505;-74
2023/03/03 07:06:45;;;;;;;0.10;0.10;;;;;;;;;;6228373;23;20020;-75
2023/03/03 07:09:31;;;;;;;0.15;0.15;;;;;;;;;;6230263;23;20086;-75
2023/03/03 07:12:18;;;;;;;0.10;0.10;;;;;;;;;;6205574;23;20805;-74
2023/03/03 07:15:20;;;;;;;0.20;0.20;;;;;;;;;;6228699;23;20480;-74
2023/03/03 07:18:16;;;;;;;0.20;0.20;;;;;;;;;;6228787;23;20015;-74
2023/03/03 07:21:24;;;;;;;0.10;0.10;;;;;;;;;;6228573;23;20008;-74
2023/03/03 07:24:27;;;;;;;0.10;0.10;;;;;;;;;;6228278;23;20055;-74
2023/03/03 07:27:23;;;;;;;0.13;0.13;;;;;;;;;;6228306;23;20046;-74
2023/03/03 07:30:19;;;;;;;0.20;0.20;;;;;;;;;;6227712;23;20023;-74
2023/03/03 07:33:11;;;;;;;0.10;0.10;;;;;;;;;;6206114;23;20285;-75
2023/03/03 07:35:58;;;;;;;0.10;0.10;;;;;;;;;;6227545;23;20074;-74
2023/03/03 07:38:52;;;;;;;0.20;0.20;;;;;;;;;;6227884;23;20036;-74
2023/03/03 07:41:37;;;;;;;0.10;0.10;;;;;;;;;;6226848;23;20024;-74
2023/03/03 07:44:41;;;;;;;0.10;0.10;;;;;;;;;;6226631;23;20016;-74
2023/03/03 07:47:35;;;;;;;0.10;0.10;;;;;;;;;;6227569;23;20485;-75
2023/03/03 07:50:21;;;;;;;0.10;0.10;;;;;;;;;;6196730;23;20059;-74
2023/03/03 07:53:39;;;;;;;0.10;0.10;;;;;;;;;;6197077;23;20020;-74
2023/03/03 07:56:29;;;;;;;0.10;0.10;;;;;;;;;;6185100;23;20104;-74
2023/03/03 07:59:23;;;;;;;0.15;0.15;;;;;;;;;;6198989;23;20016;-74
2023/03/03 08:02:22;;;;;;;0.20;0.20;;;;;;;;;;6172530;23;20032;-75
2023/03/03 08:05:27;;;;;;;0.10;0.10;;;;;;;;;;6169061;23;20019;-74
2023/03/03 08:08:16;;;;;;;0.20;0.20;;;;;;;;;;6168945;23;20455;-75
2023/03/03 08:11:04;;;;;;;0.20;0.20;;;;;;;;;;6167389;23;20025;-75
2023/03/03 08:13:50;;;;;;;0.20;0.20;;;;;;;;;;6169532;23;20096;-74
2023/03/03 08:16:36;;;;;;;0.15;0.15;;;;;;;;;;6168885;23;20048;-75
2023/03/03 08:19:23;;;;;;;0.20;0.20;;;;;;;;;;6167747;23;20016;-75
2023/03/03 08:22:12;;;;;;;0.20;0.20;;;;;;;;;;6166854;23;20021;-76
2023/03/03 08:24:58;;;;;;;0.10;0.10;;;;;;;;;;6167736;23;20052;-76
2023/03/03 08:27:44;;;;;;;0.10;0.10;;;;;;;;;;6121493;23;20351;-75
2023/03/03 08:30:30;;;;;;;0.15;0.15;;;;;;;;;;6171439;23;20095;-75
2023/03/03 08:33:17;;;;;;;0.10;0.10;;;;;;;;;;6196344;23;20449;-75
2023/03/03 08:36:05;;;;;;;0.20;0.20;;;;;;;;;;6198342;23;20373;-77
2023/03/03 08:38:50;;;;;;;0.10;0.10;;;;;;;;;;6196592;23;20017;-75
2023/03/03 08:41:37;;;;;;;0.20;0.20;;;;;;;;;;6198794;23;20016;-76
2023/03/03 08:44:23;;;;;;;0.10;0.10;;;;;;;;;;6195572;23;20017;-75
2023/03/03 08:47:09;;;;;;;0.10;0.10;;;;;;;;;;6197044;23;20071;-75
2023/03/03 08:49:55;;;;;;;0.10;0.10;;;;;;;;;;6199398;23;20032;-76
2023/03/03 08:52:40;;;;;;;0.10;0.10;;;;;;;;;;6199974;23;20439;-75
2023/03/03 08:55:26;;;;;;;0.13;0.13;;;;;;;;;;6198714;23;20728;-76
2023/03/03 08:58:13;;;;;;;0.10;0.10;;;;;;;;;;6199863;23;20040;-77
2023/03/03 09:00:59;;;;;;;0.10;0.10;;;;;;;;;;6200603;23;20016;-76
2023/03/03 09:03:45;;;;;;;0.20;0.20;;;;;;;;;;6200540;23;20450;-76
2023/03/03 09:06:30;;;;;;;0.20;0.20;;;;;;;;;;6177914;23;20017;-76
2023/03/03 09:09:16;;;;;;;0.10;0.10;;;;;;;;;;6176174;23;20092;-76
2023/03/03 09:12:12;;;;;;;0.20;0.20;;;;;;;;;;6197951;23;20763;-75
2023/03/03 09:14:59;;;;;;;0.17;0.17;;;;;;;;;;6199737;23;20017;-76
2023/03/03 09:17:45;;;;;;;0.10;0.10;;;;;;;;;;6199778;23;20040;-75
2023/03/03 09:20:35;;;;;;;0.10;0.10;;;;;;;;;;6199434;23;20083;-76
2023/03/03 09:23:27;;;;;;;0.10;0.10;;;;;;;;;;6178702;23;20021;-77
2023/03/03 09:26:12;;;;;;;;;;;;;;;;;;6160192;23;20720;-76
2023/03/03 09:29:05;;;;;;;0.10;0.10;;;;;;;;;;6176699;23;19908;-75
2023/03/03 09:31:52;;;;;;;0.20;0.20;;;;;;;;;;6197912;23;20021;-75
2023/03/03 09:34:41;;;;;;;0.10;0.10;;;;;;;;;;6198688;23;20044;-75
2023/03/03 09:37:35;;;;;;;0.10;0.10;;;;;;;;;;6198619;23;20016;-76
2023/03/03 09:40:33;;;;;;;0.10;0.10;;;;;;;;;;6177427;23;20012;-75
2023/03/03 09:43:30;;;;;;;0.20;0.20;;;;;;;;;;6199235;23;20350;-75
2023/03/03 09:46:25;;;;;;;0.20;0.20;;;;;;;;;;6177332;23;20059;-75
2023/03/03 09:49:18;;;;;;;0.20;0.20;;;;;;;;;;6180561;23;20577;-76
2023/03/03 09:52:07;;;;;;;0.17;0.17;;;;;;;;;;6197632;23;20468;-75
2023/03/03 09:55:11;;;;;;;0.20;0.20;;;;;;;;;;6197329;23;20108;-75
2023/03/03 09:58:15;;;;;;;0.20;0.20;;;;;;;;;;6198887;23;20016;-75
2023/03/03 10:01:20;;;;;;;0.10;0.10;;;;;;;;;;6189770;23;20021;-75
2023/03/03 10:04:25;;;;;;;0.10;0.10;;;;;;;;;;6168855;23;20021;-76
2023/03/03 10:07:24;;;;;;;0.20;0.20;;;;;;;;;;6166896;23;20017;-76
2023/03/03 10:10:10;;;;;;;0.20;0.20;;;;;;;;;;6169085;23;20009;-75
2023/03/03 10:13:32;;;;;;;0.20;0.20;;;;;;;;;;6168697;23;20434;-75
2023/03/03 10:16:31;;;;;;;0.28;0.28;;;;;;;;;;6080368;23;20068;-75
2023/03/03 10:19:33;;;;;;;0.20;0.20;;;;;;;;;;6170935;23;20013;-76
2023/03/03 10:22:19;;;;;;;0.30;0.30;;;;;;;;;;6168541;23;20116;-76
2023/03/03 10:25:17;;;;;;;0.28;0.28;;;;;;;;;;6169070;23;20028;-76
2023/03/03 10:28:24;;;;;;;0.30;0.30;;;;;;;;;;6134702;23;20431;-76
2023/03/03 10:31:18;;;;;;;0.20;0.20;;;;;;;;;;6179755;23;20545;-76
2023/03/03 10:34:13;;;;;;;0.20;0.20;;;;;;;;;;6201030;23;20017;-76
2023/03/03 10:37:07;;;;;;;0.30;0.30;;;;;;;;;;6200061;23;20087;-76
2023/03/03 10:40:04;;;;;;;0.20;0.20;;;;;;;;;;6200058;23;20374;-76
2023/03/03 10:43:11;;;;;;;0.20;0.20;;;;;;;;;;6200722;23;20039;-76
2023/03/03 10:45:56;;;;;;;0.20;0.20;;;;;;;;;;6200493;23;20431;-77
2023/03/03 10:48:51;;;;;;;0.30;0.30;;;;;;;;;;6200801;23;20461;-77
2023/03/03 10:51:53;;;;;;;0.30;0.30;;;;;;;;;;6199832;23;20012;-76
2023/03/03 10:54:47;;;;;;;0.30;0.30;;;;;;;;;;6199274;23;20028;-76
2023/03/03 10:57:52;;;;;;;0.20;0.20;;;;;;;;;;6197959;23;20016;-77
2023/03/03 11:00:48;;;;;;;0.20;0.20;;;;;;;;;;6196837;23;20009;-77
2023/03/03 11:03:40;;;;;;;0.30;0.30;;;;;;;;;;6200571;23;20032;-77
2023/03/03 11:06:44;;;;;;;0.20;0.20;;;;;;;;;;6198733;23;20016;-77
2023/03/03 11:09:43;;;;;;;0.20;0.20;;;;;;;;;;6176219;23;20023;-76
2023/03/03 11:12:38;;;;;;;0.20;0.20;;;;;;;;;;6196989;23;20419;-77
2023/03/03 11:15:26;;;;;;;0.20;0.20;;;;;;;;;;6199741;23;20013;-77
2023/03/03 11:18:18;;;;;;;0.20;0.20;;;;;;;;;;6199446;23;20527;-77
2023/03/03 11:21:04;;;;;;;0.20;0.20;;;;;;;;;;6199614;23;20024;-76
2023/03/03 11:24:09;;;;;;;0.10;0.10;;;;;;;;;;6199465;23;20039;-77
2023/03/03 11:27:11;;;;;;;0.20;0.20;;;;;;;;;;6161005;23;20297;-77
2023/03/03 11:30:10;;;;;;;0.10;0.10;;;;;;;;;;6197278;23;20091;-77
2023/03/03 11:33:00;;;;;;;0.10;0.10;;;;;;;;;;6199892;23;20039;-77
2023/03/03 11:35:50;;;;;;;0.10;0.10;;;;;;;;;;6196703;23;20448;-77
2023/03/03 11:38:35;;;;;;;0.20;0.20;;;;;;;;;;6197609;23;20095;-78
2023/03/03 11:41:21;;;;;;;0.13;0.13;;;;;;;;;;6199026;23;20017;-77
2023/03/03 11:44:19;;;;;;;0.00;0.00;;;;;;;;;;6197603;23;20044;-76
2023/03/03 11:47:26;;;;;;;0.13;0.13;;;;;;;;;;6197267;23;20048;-78
2023/03/03 11:50:22;;;;;;;0.20;0.20;;;;;;;;;;6221874;23;20477;-77
2023/03/03 11:53:08;;;;;;;0.10;0.10;;;;;;;;;;6228198;23;20339;-77
2023/03/03 11:55:56;;;;;;;0.10;0.10;;;;;;;;;;6229049;23;20012;-77
2023/03/03 11:58:45;;;;;;;0.10;0.10;;;;;;;;;;6228242;23;20357;-77
2023/03/03 12:01:35;;;;;;;0.10;0.10;;;;;;;;;;6227458;23;20039;-77
2023/03/03 12:04:39;;;;;;;0.10;0.10;;;;;;;;;;6230303;23;20096;-77
2023/03/03 12:07:35;;;;;;;0.10;0.10;;;;;;;;;;6226930;23;20012;-77
2023/03/03 12:10:33;;;;;;;0.13;0.13;;;;;;;;;;6228225;23;20087;-77
2023/03/03 12:13:25;;;;;;;0.10;0.10;;;;;;;;;;6228395;23;20027;-77
2023/03/03 12:16:14;;;;;;;0.10;0.10;;;;;;;;;;6228508;23;20066;-77
2023/03/03 12:19:02;;;;;;;0.20;0.20;;;;;;;;;;6228111;23;20060;-77
2023/03/03 12:21:57;;;;;;;0.15;0.15;;;;;;;;;;6228096;23;20098;-76
2023/03/03 12:24:59;;;;;;;0.10;0.10;;;;;;;;;;6229156;23;20374;-77
2023/03/03 12:27:51;;;;;;;0.10;0.10;;;;;;;;;;6228791;23;20287;-77
2023/03/03 12:30:36;;;;;;;0.10;0.10;;;;;;;;;;6226516;23;20005;-77
2023/03/03 12:33:31;;;;;;;0.13;0.13;;;;;;;;;;6226053;23;20016;-77
2023/03/03 12:36:35;;;;;;;0.10;0.10;;;;;;;;;;6227165;23;20100;-77
2023/03/03 12:39:56;;;;;;;0.10;0.10;;;;;;;;;;6228834;23;20008;-77
2023/03/03 12:42:52;;;;;;;0.10;0.10;;;;;;;;;;6058939;23;20050;-77
2023/03/03 12:45:52;;;;;;;0.10;0.10;;;;;;;;;;6229659;23;20024;-77
2023/03/03 12:48:43;;;;;;;0.10;0.10;;;;;;;;;;6205827;23;20031;-77
2023/03/03 12:51:31;;;;;;;0.10;0.10;;;;;;;;;;6207967;23;20016;-77
2023/03/03 12:54:31;;;;;;;0.10;0.10;;;;;;;;;;6206571;23;20347;-77
2023/03/03 12:57:42;;;;;;;0.10;0.10;;;;;;;;;;6227258;23;20018;-80
2023/03/03 13:00:39;;;;;;;0.10;0.10;;;;;;;;;;6204721;23;20008;-77
2023/03/03 13:03:34;;;;;;;0.10;0.10;;;;;;;;;;6225739;23;20036;-77
2023/03/03 13:06:28;;;;;;;0.10;0.10;;;;;;;;;;6226067;23;20204;-76
2023/03/03 13:09:14;;;;;;;0.10;0.10;;;;;;;;;;6205224;23;20012;-77
2023/03/03 13:12:20;;;;;;;0.05;0.05;;;;;;;;;;6226828;23;20022;-77
2023/03/03 13:15:11;;;;;;;0.10;0.10;;;;;;;;;;6226936;23;20016;-76
2023/03/03 13:18:16;;;;;;;0.20;0.20;;;;;;;;;;6229534;23;20009;-77
2023/03/03 13:21:17;;;;;;;0.10;0.10;;;;;;;;;;6228297;23;20497;-77
2023/03/03 13:24:11;;;;;;;0.10;0.10;;;;;;;;;;6226481;23;20024;-77
2023/03/03 13:27:03;;;;;;;0.10;0.10;;;;;;;;;;6226618;23;20353;-76
2023/03/03 13:29:55;;;;;;;0.10;0.10;;;;;;;;;;6227091;23;20456;-76
2023/03/03 13:32:49;;;;;;;0.10;0.10;;;;;;;;;;6226169;23;20016;-78
2023/03/03 13:35:40;;;;;;;0.10;0.10;;;;;;;;;;6226778;23;20016;-77
2023/03/03 13:38:46;;;;;;;0.10;0.10;;;;;;;;;;6229709;23;20098;-79
2023/03/03 13:41:43;;;;;;;0.10;0.10;;;;;;;;;;6228216;23;20046;-78
2023/03/03 13:44:42;;;;;;;0.10;0.10;;;;;;;;;;6229417;23;20012;-77
2023/03/03 13:47:41;;;;;;;0.10;0.10;;;;;;;;;;6229594;23;20435;-78
2023/03/03 13:50:36;;;;;;;0.10;0.10;;;;;;;;;;6229562;23;20016;-78
2023/03/03 13:53:29;;;;;;;0.15;0.15;;;;;;;;;;6229053;23;20023;-77
2023/03/03 13:56:30;;;;;;;0.10;0.10;;;;;;;;;;6228997;23;20019;-77
2023/03/03 13:59:43;;;;;;;0.10;0.10;;;;;;;;;;6206760;23;20016;-77
2023/03/03 14:02:47;;;;;;;0.10;0.10;;;;;;;;;;6228931;23;20496;-77
2023/03/03 14:05:39;;;;;;;0.10;0.10;;;;;;;;;;6228109;23;20500;-77
2023/03/03 14:08:43;;;;;;;0.10;0.10;;;;;;;;;;6228941;23;20016;-77
2023/03/03 14:11:46;;;;;;;0.10;0.10;;;;;;;;;;6227906;23;20036;-77
2023/03/03 14:14:38;;;;;;;0.00;0.00;;;;;;;;;;6207678;23;20015;-77
2023/03/03 14:17:43;;;;;;;0.10;0.10;;;;;;;;;;6229961;23;20416;-77
2023/03/03 14:20:34;;;;;;;0.00;0.00;;;;;;;;;;6207048;23;20008;-77
2023/03/03 14:23:23;;;;;;;0.10;0.10;;;;;;;;;;6205308;23;20020;-78
2023/03/03 14:26:12;;;;;;;0.10;0.10;;;;;;;;;;6229257;23;20381;-77
2023/03/03 14:29:20;;;;;;;0.05;0.05;;;;;;;;;;6206617;23;20020;-77
2023/03/03 14:32:25;;;;;;;0.10;0.10;;;;;;;;;;6206663;23;20034;-77
2023/03/03 14:35:19;;;;;;;0.10;0.10;;;;;;;;;;6205622;23;20524;-77
2023/03/03 14:38:07;;;;;;;0.10;0.10;;;;;;;;;;6206357;23;20018;-76
2023/03/03 14:41:05;;;;;;;0.10;0.10;;;;;;;;;;6230317;23;20016;-77
2023/03/03 14:43:50;;;;;;;0.03;0.03;;;;;;;;;;6229048;23;20031;-77
2023/03/03 14:46:38;;;;;;;0.10;0.10;;;;;;;;;;6229378;23;20020;-77
2023/03/03 14:49:31;;;;;;;0.10;0.10;;;;;;;;;;6206744;23;20055;-76
2023/03/03 14:52:19;;;;;;;0.10;0.10;;;;;;;;;;6228949;23;20381;-76
2023/03/03 14:55:25;;;;;;;0.10;0.10;;;;;;;;;;6229577;23;20024;-76
2023/03/03 14:58:33;;;;;;;0.10;0.10;;;;;;;;;;6204605;23;20016;-77
2023/03/03 15:01:28;;;;;;;0.10;0.10;;;;;;;;;;6227810;23;20023;-77
2023/03/03 15:04:14;;;;;;;0.00;0.00;;;;;;;;;;6228739;23;20019;-76
2023/03/03 15:07:13;;;;;;;0.10;0.10;;;;;;;;;;6226480;23;20465;-76
2023/03/03 15:09:59;;;;;;;0.10;0.10;;;;;;;;;;6227914;23;20016;-76
2023/03/03 15:12:44;;;;;;;0.10;0.10;;;;;;;;;;6227801;23;20091;-76
2023/03/03 15:15:30;;;;;;;0.05;0.05;;;;;;;;;;6228475;23;20016;-76
2023/03/03 15:18:16;;;;;;;0.00;0.00;;;;;;;;;;6227275;23;20028;-78
2023/03/03 15:21:04;;;;;;;0.00;0.00;;;;;;;;;;6209375;23;20012;-75
2023/03/03 15:23:53;;;;;;;0.00;0.00;;;;;;;;;;6228564;23;20020;-75
2023/03/03 15:26:44;;;;;;;0.00;0.00;;;;;;;;;;6228781;23;20012;-75
2023/03/03 15:30:00;;;;;;;0.00;0.00;;;;;;;;;;6205914;23;20016;-75
2023/03/03 15:32:52;;;;;;;0.00;0.00;;;;;;;;;;6117452;23;20027;-75
2023/03/03 15:35:46;;;;;;;0.10;0.10;;;;;;;;;;6227481;23;20091;-75
2023/03/03 15:38:50;;;;;;;0.10;0.10;;;;;;;;;;6229365;23;20311;-75
2023/03/03 15:41:38;;;;;;;0.00;0.00;;;;;;;;;;6228336;23;20020;-74
2023/03/03 15:44:30;;;;;;;0.10;0.10;;;;;;;;;;6206470;23;20012;-74
2023/03/03 15:47:15;;;;;;;0.08;0.08;;;;;;;;;;6227751;23;20020;-74
2023/03/03 15:50:19;;;;;;;0.00;0.00;;;;;;;;;;6228295;23;20027;-74
2023/03/03 15:53:27;;;;;;;0.08;0.08;;;;;;;;;;6205752;23;20031;-74
2023/03/03 15:56:34;;;;;;;0.10;0.10;;;;;;;;;;6206958;23;20497;-74
2023/03/03 15:59:27;;;;;;;0.00;0.00;;;;;;;;;;6227659;23;20103;-75
2023/03/03 16:02:21;;;;;;;0.03;0.03;;;;;;;;;;6227839;23;20432;-75
2023/03/03 16:05:14;;;;;;;0.00;0.00;;;;;;;;;;6228139;23;20012;-75
2023/03/03 16:08:13;;;;;;;0.10;0.10;;;;;;;;;;6204646;23;20016;-75
2023/03/03 16:11:05;;;;;;;0.00;0.00;;;;;;;;;;6226484;23;20446;-76
2023/03/03 16:13:51;;;;;;;0.10;0.10;;;;;;;;;;6228440;23;20015;-76
2023/03/03 16:16:50;;;;;;;0.10;0.10;;;;;;;;;;6226253;23;20012;-75
2023/03/03 16:19:52;;;;;;;0.10;0.10;;;;;;;;;;6227854;23;20009;-76
2023/03/03 16:22:56;;;;;;;0.10;0.10;;;;;;;;;;6227836;23;20031;-76
2023/03/03 16:25:49;;;;;;;0.10;0.10;;;;;;;;;;6179126;23;20086;-76
2023/03/03 16:28:47;;;;;;;0.10;0.10;;;;;;;;;;6226588;23;20672;-76
2023/03/03 16:31:33;;;;;;;0.00;0.00;;;;;;;;;;6225375;23;20062;-75
2023/03/03 16:34:24;;;;;;;0.10;0.10;;;;;;;;;;6222685;23;20019;-75
2023/03/03 16:37:18;;;;;;;0.10;0.10;;;;;;;;;;6219869;23;20016;-75
2023/03/03 16:40:07;;;;;;;0.10;0.10;;;;;;;;;;6228249;23;20023;-75
2023/03/03 16:43:05;;;;;;;0.10;0.10;;;;;;;;;;6228157;23;20103;-75
2023/03/03 16:45:55;;;;;;;0.10;0.10;;;;;;;;;;6205639;23;20307;-75
2023/03/03 16:49:00;;;;;;;0.10;0.10;;;;;;;;;;6226989;23;20111;-75
2023/03/03 16:51:56;;;;;;;0.10;0.10;;;;;;;;;;6227219;23;20321;-75
2023/03/03 16:54:53;;;;;;;0.10;0.10;;;;;;;;;;6227424;23;20031;-75
2023/03/03 16:57:57;;;;;;;0.10;0.10;;;;;;;;;;6227220;23;20548;-76
2023/03/03 17:01:01;;;;;;;0.10;0.10;;;;;;;;;;6204663;23;20016;-76
2023/03/03 17:04:09;;;;;;;0.10;0.10;;;;;;;;;;6086759;23;20294;-74
2023/03/03 17:07:17;;;;;;;0.10;0.10;;;;;;;;;;6141412;23;20452;-75
2023/03/03 17:10:33;;;;;;;0.10;0.10;;;;;;;;;;5975778;23;20016;-74